Terminal Aerodrome Forecast
Issued by NWS Lake Charles, LA

Home | Current Version | Previous Version | Text Only | Print | Product List | Glossary On
Versions: 1 2 3 4 5 6 7 8 9 10 11 12 13 14 15 16 17 18 19 20
000
FTUS44 KLCH 301134
TAFLFT
TAF
KLFT 301134Z 3012/3112 VRB03KT P6SM FEW017 SCT250
     FM301700 24006KT P6SM VCSH FEW022 SCT030
      TEMPO 3019/3023 2SM TSRA BKN015CB
     FM310200 VRB03KT P6SM BKN250=

USA.gov is the U.S. government's official web portal to all federal, state and local government web resources and services.